sensor_id;sensor_type;location;lat;lon;timestamp;P1;durP1;ratioP1;P2;durP2;ratioP2
15449;SDS011;7826;49.784;9.934;2023-12-14T00:02:05;17.07;;;9.00;;
15449;SDS011;7826;49.784;9.934;2023-12-14T00:04:31;15.47;;;9.17;;
15449;SDS011;7826;49.784;9.934;2023-12-14T00:06:58;15.70;;;9.03;;
15449;SDS011;7826;49.784;9.934;2023-12-14T00:09:24;16.10;;;9.33;;
15449;SDS011;7826;49.784;9.934;2023-12-14T00:11:51;14.87;;;8.40;;
15449;SDS011;7826;49.784;9.934;2023-12-14T00:14:17;13.27;;;9.17;;
15449;SDS011;7826;49.784;9.934;2023-12-14T00:16:44;12.83;;;8.80;;
15449;SDS011;7826;49.784;9.934;2023-12-14T00:19:10;16.23;;;9.03;;
15449;SDS011;7826;49.784;9.934;2023-12-14T00:21:37;14.83;;;9.27;;
15449;SDS011;7826;49.784;9.934;2023-12-14T00:24:03;17.57;;;9.40;;
15449;SDS011;7826;49.784;9.934;2023-12-14T00:26:30;13.97;;;9.00;;
15449;SDS011;7826;49.784;9.934;2023-12-14T00:28:56;17.10;;;8.73;;
15449;SDS011;7826;49.784;9.934;2023-12-14T00:31:22;13.70;;;8.87;;
15449;SDS011;7826;49.784;9.934;2023-12-14T00:33:49;15.03;;;8.87;;
15449;SDS011;7826;49.784;9.934;2023-12-14T00:36:18;17.17;;;9.17;;
15449;SDS011;7826;49.784;9.934;2023-12-14T00:38:45;14.77;;;8.97;;
15449;SDS011;7826;49.784;9.934;2023-12-14T00:41:12;15.43;;;9.57;;
15449;SDS011;7826;49.784;9.934;2023-12-14T00:43:39;15.00;;;9.43;;
15449;SDS011;7826;49.784;9.934;2023-12-14T00:46:05;14.50;;;9.47;;
15449;SDS011;7826;49.784;9.934;2023-12-14T00:48:33;17.70;;;9.40;;
15449;SDS011;7826;49.784;9.934;2023-12-14T00:50:59;17.23;;;9.63;;
15449;SDS011;7826;49.784;9.934;2023-12-14T00:53:25;18.30;;;9.90;;
15449;SDS011;7826;49.784;9.934;2023-12-14T00:55:52;18.33;;;9.97;;
15449;SDS011;7826;49.784;9.934;2023-12-14T00:58:18;18.87;;;9.97;;
15449;SDS011;7826;49.784;9.934;2023-12-14T01:00:45;17.63;;;9.77;;
15449;SDS011;7826;49.784;9.934;2023-12-14T01:03:12;16.23;;;9.70;;
15449;SDS011;7826;49.784;9.934;2023-12-14T01:05:39;16.40;;;9.80;;
15449;SDS011;7826;49.784;9.934;2023-12-14T01:08:05;17.17;;;9.97;;
15449;SDS011;7826;49.784;9.934;2023-12-14T01:10:32;16.33;;;9.60;;
15449;SDS011;7826;49.784;9.934;2023-12-14T01:12:59;16.70;;;9.83;;
15449;SDS011;7826;49.784;9.934;2023-12-14T01:15:25;14.10;;;8.83;;
15449;SDS011;7826;49.784;9.934;2023-12-14T01:17:52;19.77;;;10.47;;
15449;SDS011;7826;49.784;9.934;2023-12-14T01:20:18;16.10;;;9.50;;
15449;SDS011;7826;49.784;9.934;2023-12-14T01:22:45;16.93;;;9.87;;
15449;SDS011;7826;49.784;9.934;2023-12-14T01:25:11;18.47;;;10.37;;
15449;SDS011;7826;49.784;9.934;2023-12-14T01:27:38;19.23;;;10.73;;
15449;SDS011;7826;49.784;9.934;2023-12-14T01:30:04;16.67;;;10.07;;
15449;SDS011;7826;49.784;9.934;2023-12-14T01:32:31;17.43;;;9.67;;
15449;SDS011;7826;49.784;9.934;2023-12-14T01:34:58;21.93;;;9.43;;
15449;SDS011;7826;49.784;9.934;2023-12-14T01:37:24;18.07;;;10.07;;
15449;SDS011;7826;49.784;9.934;2023-12-14T01:39:51;18.40;;;10.27;;
15449;SDS011;7826;49.784;9.934;2023-12-14T01:42:17;21.57;;;10.67;;
15449;SDS011;7826;49.784;9.934;2023-12-14T01:44:44;18.37;;;10.30;;
15449;SDS011;7826;49.784;9.934;2023-12-14T01:47:10;19.43;;;10.50;;
15449;SDS011;7826;49.784;9.934;2023-12-14T01:49:36;19.33;;;10.73;;
15449;SDS011;7826;49.784;9.934;2023-12-14T01:52:03;18.57;;;10.23;;
15449;SDS011;7826;49.784;9.934;2023-12-14T01:54:30;19.20;;;10.67;;
15449;SDS011;7826;49.784;9.934;2023-12-14T01:56:56;18.73;;;10.40;;
15449;SDS011;7826;49.784;9.934;2023-12-14T01:59:22;20.57;;;10.17;;
15449;SDS011;7826;49.784;9.934;2023-12-14T02:01:52;18.40;;;10.63;;
15449;SDS011;7826;49.784;9.934;2023-12-14T02:04:22;18.83;;;10.67;;
15449;SDS011;7826;49.784;9.934;2023-12-14T02:06:51;15.67;;;9.30;;
15449;SDS011;7826;49.784;9.934;2023-12-14T02:09:17;16.33;;;9.63;;
15449;SDS011;7826;49.784;9.934;2023-12-14T02:11:44;16.53;;;9.67;;
15449;SDS011;7826;49.784;9.934;2023-12-14T02:14:11;14.87;;;9.07;;
15449;SDS011;7826;49.784;9.934;2023-12-14T02:16:38;13.97;;;8.17;;
15449;SDS011;7826;49.784;9.934;2023-12-14T02:19:04;13.93;;;8.53;;
15449;SDS011;7826;49.784;9.934;2023-12-14T02:21:31;13.67;;;8.53;;
15449;SDS011;7826;49.784;9.934;2023-12-14T02:23:58;12.93;;;8.77;;
15449;SDS011;7826;49.784;9.934;2023-12-14T02:26:24;12.93;;;8.73;;
15449;SDS011;7826;49.784;9.934;2023-12-14T02:28:50;15.03;;;9.17;;
15449;SDS011;7826;49.784;9.934;2023-12-14T02:31:18;15.97;;;9.13;;
15449;SDS011;7826;49.784;9.934;2023-12-14T02:33:45;12.20;;;8.20;;
15449;SDS011;7826;49.784;9.934;2023-12-14T02:36:12;13.70;;;8.47;;
15449;SDS011;7826;49.784;9.934;2023-12-14T02:38:38;13.77;;;8.27;;
15449;SDS011;7826;49.784;9.934;2023-12-14T02:41:05;13.30;;;7.87;;
15449;SDS011;7826;49.784;9.934;2023-12-14T02:43:31;12.10;;;7.53;;
15449;SDS011;7826;49.784;9.934;2023-12-14T02:45:58;14.57;;;8.80;;
15449;SDS011;7826;49.784;9.934;2023-12-14T02:48:28;13.67;;;8.63;;
15449;SDS011;7826;49.784;9.934;2023-12-14T02:50:57;12.10;;;8.07;;
15449;SDS011;7826;49.784;9.934;2023-12-14T02:53:26;15.53;;;8.33;;
15449;SDS011;7826;49.784;9.934;2023-12-14T02:55:52;14.90;;;9.30;;
15449;SDS011;7826;49.784;9.934;2023-12-14T02:58:19;15.60;;;8.90;;
15449;SDS011;7826;49.784;9.934;2023-12-14T03:00:46;15.20;;;8.93;;
15449;SDS011;7826;49.784;9.934;2023-12-14T03:03:12;15.57;;;9.27;;
15449;SDS011;7826;49.784;9.934;2023-12-14T03:05:38;14.80;;;8.83;;
15449;SDS011;7826;49.784;9.934;2023-12-14T03:08:05;15.03;;;9.53;;
15449;SDS011;7826;49.784;9.934;2023-12-14T03:10:31;14.33;;;9.13;;
15449;SDS011;7826;49.784;9.934;2023-12-14T03:12:58;14.67;;;8.97;;
15449;SDS011;7826;49.784;9.934;2023-12-14T03:15:24;15.87;;;9.53;;
15449;SDS011;7826;49.784;9.934;2023-12-14T03:17:51;14.40;;;9.43;;
15449;SDS011;7826;49.784;9.934;2023-12-14T03:20:17;14.50;;;10.00;;
15449;SDS011;7826;49.784;9.934;2023-12-14T03:22:44;13.73;;;9.83;;
15449;SDS011;7826;49.784;9.934;2023-12-14T03:25:10;18.53;;;9.93;;
15449;SDS011;7826;49.784;9.934;2023-12-14T03:27:36;16.00;;;10.10;;
15449;SDS011;7826;49.784;9.934;2023-12-14T03:30:03;17.33;;;10.87;;
15449;SDS011;7826;49.784;9.934;2023-12-14T03:32:33;18.03;;;10.67;;
15449;SDS011;7826;49.784;9.934;2023-12-14T03:35:00;17.13;;;9.63;;
15449;SDS011;7826;49.784;9.934;2023-12-14T03:37:26;15.40;;;10.33;;
15449;SDS011;7826;49.784;9.934;2023-12-14T03:39:53;16.13;;;10.03;;
15449;SDS011;7826;49.784;9.934;2023-12-14T03:42:19;15.83;;;9.60;;
15449;SDS011;7826;49.784;9.934;2023-12-14T03:44:47;12.43;;;8.23;;
15449;SDS011;7826;49.784;9.934;2023-12-14T03:47:13;14.27;;;8.90;;
15449;SDS011;7826;49.784;9.934;2023-12-14T03:49:40;13.67;;;9.50;;
15449;SDS011;7826;49.784;9.934;2023-12-14T03:52:06;16.27;;;9.73;;
15449;SDS011;7826;49.784;9.934;2023-12-14T03:54:33;17.00;;;9.83;;
15449;SDS011;7826;49.784;9.934;2023-12-14T03:57:00;16.60;;;10.03;;
15449;SDS011;7826;49.784;9.934;2023-12-14T03:59:26;16.40;;;10.53;;
15449;SDS011;7826;49.784;9.934;2023-12-14T04:01:53;18.53;;;11.57;;
15449;SDS011;7826;49.784;9.934;2023-12-14T04:04:19;18.03;;;10.50;;
15449;SDS011;7826;49.784;9.934;2023-12-14T04:06:46;18.63;;;10.17;;
15449;SDS011;7826;49.784;9.934;2023-12-14T04:09:12;16.87;;;10.63;;
15449;SDS011;7826;49.784;9.934;2023-12-14T04:11:38;18.23;;;10.40;;
15449;SDS011;7826;49.784;9.934;2023-12-14T04:14:05;18.77;;;11.23;;
15449;SDS011;7826;49.784;9.934;2023-12-14T04:16:31;22.57;;;11.93;;
15449;SDS011;7826;49.784;9.934;2023-12-14T04:18:58;18.60;;;11.53;;
15449;SDS011;7826;49.784;9.934;2023-12-14T04:21:24;20.10;;;11.40;;
15449;SDS011;7826;49.784;9.934;2023-12-14T04:23:51;18.47;;;10.33;;
15449;SDS011;7826;49.784;9.934;2023-12-14T04:26:17;18.90;;;11.43;;
15449;SDS011;7826;49.784;9.934;2023-12-14T04:28:43;18.07;;;11.37;;
15449;SDS011;7826;49.784;9.934;2023-12-14T04:31:11;20.77;;;10.03;;
15449;SDS011;7826;49.784;9.934;2023-12-14T04:33:38;20.77;;;11.07;;
15449;SDS011;7826;49.784;9.934;2023-12-14T04:36:05;18.03;;;10.70;;
15449;SDS011;7826;49.784;9.934;2023-12-14T04:38:32;17.17;;;10.97;;
15449;SDS011;7826;49.784;9.934;2023-12-14T04:40:58;17.40;;;10.50;;
15449;SDS011;7826;49.784;9.934;2023-12-14T04:43:25;17.80;;;10.67;;
15449;SDS011;7826;49.784;9.934;2023-12-14T04:45:55;17.80;;;10.27;;
15449;SDS011;7826;49.784;9.934;2023-12-14T04:48:21;21.57;;;11.30;;
15449;SDS011;7826;49.784;9.934;2023-12-14T04:50:48;20.47;;;11.60;;
15449;SDS011;7826;49.784;9.934;2023-12-14T04:53:14;23.37;;;12.53;;
15449;SDS011;7826;49.784;9.934;2023-12-14T04:55:41;21.37;;;12.20;;
15449;SDS011;7826;49.784;9.934;2023-12-14T04:58:07;19.77;;;11.97;;
15449;SDS011;7826;49.784;9.934;2023-12-14T05:00:34;23.27;;;12.17;;
15449;SDS011;7826;49.784;9.934;2023-12-14T05:03:00;21.40;;;12.30;;
15449;SDS011;7826;49.784;9.934;2023-12-14T05:05:27;22.13;;;12.33;;
15449;SDS011;7826;49.784;9.934;2023-12-14T05:07:53;20.83;;;11.60;;
15449;SDS011;7826;49.784;9.934;2023-12-14T05:10:20;20.73;;;11.70;;
15449;SDS011;7826;49.784;9.934;2023-12-14T05:12:47;18.40;;;10.67;;
15449;SDS011;7826;49.784;9.934;2023-12-14T05:15:13;18.70;;;11.47;;
15449;SDS011;7826;49.784;9.934;2023-12-14T05:17:40;20.80;;;11.53;;
15449;SDS011;7826;49.784;9.934;2023-12-14T05:20:09;20.57;;;11.57;;
15449;SDS011;7826;49.784;9.934;2023-12-14T05:22:36;20.30;;;11.13;;
15449;SDS011;7826;49.784;9.934;2023-12-14T05:25:03;16.50;;;10.33;;
15449;SDS011;7826;49.784;9.934;2023-12-14T05:27:30;15.80;;;10.60;;
15449;SDS011;7826;49.784;9.934;2023-12-14T05:29:56;17.73;;;10.87;;
15449;SDS011;7826;49.784;9.934;2023-12-14T05:32:23;20.30;;;11.40;;
15449;SDS011;7826;49.784;9.934;2023-12-14T05:34:49;19.10;;;10.93;;
15449;SDS011;7826;49.784;9.934;2023-12-14T05:37:16;17.77;;;10.63;;
15449;SDS011;7826;49.784;9.934;2023-12-14T05:39:42;17.10;;;10.93;;
15449;SDS011;7826;49.784;9.934;2023-12-14T05:42:11;18.97;;;10.20;;
15449;SDS011;7826;49.784;9.934;2023-12-14T05:44:37;20.07;;;10.87;;
15449;SDS011;7826;49.784;9.934;2023-12-14T05:47:03;16.50;;;10.17;;
15449;SDS011;7826;49.784;9.934;2023-12-14T05:49:30;16.70;;;10.57;;
15449;SDS011;7826;49.784;9.934;2023-12-14T05:51:58;18.60;;;11.00;;
15449;SDS011;7826;49.784;9.934;2023-12-14T05:54:26;21.47;;;11.33;;
15449;SDS011;7826;49.784;9.934;2023-12-14T05:56:52;20.03;;;11.07;;
15449;SDS011;7826;49.784;9.934;2023-12-14T05:59:18;17.67;;;11.00;;
15449;SDS011;7826;49.784;9.934;2023-12-14T06:01:45;18.80;;;10.60;;
15449;SDS011;7826;49.784;9.934;2023-12-14T06:04:11;19.83;;;11.30;;
15449;SDS011;7826;49.784;9.934;2023-12-14T06:06:38;20.63;;;11.13;;
15449;SDS011;7826;49.784;9.934;2023-12-14T06:09:05;21.37;;;10.93;;
15449;SDS011;7826;49.784;9.934;2023-12-14T06:11:34;23.07;;;11.80;;
15449;SDS011;7826;49.784;9.934;2023-12-14T06:14:02;20.53;;;11.40;;
15449;SDS011;7826;49.784;9.934;2023-12-14T06:16:28;19.40;;;11.17;;
15449;SDS011;7826;49.784;9.934;2023-12-14T06:18:55;22.67;;;11.10;;
15449;SDS011;7826;49.784;9.934;2023-12-14T06:21:21;24.50;;;12.20;;
15449;SDS011;7826;49.784;9.934;2023-12-14T06:23:51;21.87;;;10.73;;
15449;SDS011;7826;49.784;9.934;2023-12-14T06:26:17;17.27;;;10.43;;
15449;SDS011;7826;49.784;9.934;2023-12-14T06:28:44;21.67;;;10.80;;
15449;SDS011;7826;49.784;9.934;2023-12-14T06:31:13;22.70;;;10.77;;
15449;SDS011;7826;49.784;9.934;2023-12-14T06:33:41;20.43;;;10.93;;
15449;SDS011;7826;49.784;9.934;2023-12-14T06:36:07;22.33;;;11.37;;
15449;SDS011;7826;49.784;9.934;2023-12-14T06:38:36;22.30;;;11.37;;
15449;SDS011;7826;49.784;9.934;2023-12-14T06:41:05;20.83;;;10.40;;
15449;SDS011;7826;49.784;9.934;2023-12-14T06:43:32;23.93;;;11.37;;
15449;SDS011;7826;49.784;9.934;2023-12-14T06:45:58;20.80;;;10.83;;
15449;SDS011;7826;49.784;9.934;2023-12-14T06:48:25;19.93;;;10.80;;
15449;SDS011;7826;49.784;9.934;2023-12-14T06:50:51;20.87;;;10.10;;
15449;SDS011;7826;49.784;9.934;2023-12-14T06:53:20;16.40;;;9.30;;
15449;SDS011;7826;49.784;9.934;2023-12-14T06:55:47;17.73;;;10.57;;
15449;SDS011;7826;49.784;9.934;2023-12-14T06:58:13;17.37;;;10.40;;
15449;SDS011;7826;49.784;9.934;2023-12-14T07:00:39;20.87;;;10.57;;
15449;SDS011;7826;49.784;9.934;2023-12-14T07:03:06;18.63;;;10.80;;
15449;SDS011;7826;49.784;9.934;2023-12-14T07:05:32;19.90;;;10.67;;
15449;SDS011;7826;49.784;9.934;2023-12-14T07:07:59;20.10;;;10.90;;
15449;SDS011;7826;49.784;9.934;2023-12-14T07:10:25;19.33;;;10.53;;
15449;SDS011;7826;49.784;9.934;2023-12-14T07:12:52;20.30;;;11.33;;
15449;SDS011;7826;49.784;9.934;2023-12-14T07:15:18;20.87;;;10.80;;
15449;SDS011;7826;49.784;9.934;2023-12-14T07:17:44;21.60;;;11.10;;
15449;SDS011;7826;49.784;9.934;2023-12-14T07:20:11;23.13;;;11.17;;
15449;SDS011;7826;49.784;9.934;2023-12-14T07:22:38;19.47;;;10.80;;
15449;SDS011;7826;49.784;9.934;2023-12-14T07:25:04;21.07;;;10.53;;
15449;SDS011;7826;49.784;9.934;2023-12-14T07:27:31;22.50;;;11.43;;
15449;SDS011;7826;49.784;9.934;2023-12-14T07:29:57;23.10;;;11.70;;
15449;SDS011;7826;49.784;9.934;2023-12-14T07:32:24;22.77;;;12.13;;
15449;SDS011;7826;49.784;9.934;2023-12-14T07:34:50;20.83;;;11.63;;
15449;SDS011;7826;49.784;9.934;2023-12-14T07:37:17;24.83;;;12.03;;
15449;SDS011;7826;49.784;9.934;2023-12-14T07:39:43;22.33;;;11.37;;
15449;SDS011;7826;49.784;9.934;2023-12-14T07:42:10;19.83;;;11.30;;
15449;SDS011;7826;49.784;9.934;2023-12-14T07:44:37;21.90;;;11.03;;
15449;SDS011;7826;49.784;9.934;2023-12-14T07:47:06;18.03;;;9.80;;
15449;SDS011;7826;49.784;9.934;2023-12-14T07:49:33;20.27;;;10.60;;
15449;SDS011;7826;49.784;9.934;2023-12-14T07:51:59;16.10;;;9.97;;
15449;SDS011;7826;49.784;9.934;2023-12-14T07:54:25;17.50;;;10.70;;
15449;SDS011;7826;49.784;9.934;2023-12-14T07:56:52;21.63;;;11.13;;
15449;SDS011;7826;49.784;9.934;2023-12-14T07:59:19;15.60;;;10.03;;
15449;SDS011;7826;49.784;9.934;2023-12-14T08:01:45;19.93;;;10.27;;
15449;SDS011;7826;49.784;9.934;2023-12-14T08:04:12;16.97;;;10.37;;
15449;SDS011;7826;49.784;9.934;2023-12-14T08:06:40;21.03;;;11.10;;
15449;SDS011;7826;49.784;9.934;2023-12-14T08:09:06;20.60;;;10.63;;
15449;SDS011;7826;49.784;9.934;2023-12-14T08:11:33;21.17;;;10.57;;
15449;SDS011;7826;49.784;9.934;2023-12-14T08:14:00;18.00;;;10.27;;
15449;SDS011;7826;49.784;9.934;2023-12-14T08:16:26;17.93;;;10.70;;
15449;SDS011;7826;49.784;9.934;2023-12-14T08:18:52;18.77;;;10.60;;
15449;SDS011;7826;49.784;9.934;2023-12-14T08:21:19;20.30;;;11.33;;
15449;SDS011;7826;49.784;9.934;2023-12-14T08:23:45;16.73;;;10.33;;
15449;SDS011;7826;49.784;9.934;2023-12-14T08:26:12;23.00;;;10.93;;
15449;SDS011;7826;49.784;9.934;2023-12-14T08:28:39;19.07;;;11.13;;
15449;SDS011;7826;49.784;9.934;2023-12-14T08:31:05;18.43;;;11.17;;
15449;SDS011;7826;49.784;9.934;2023-12-14T08:33:32;18.70;;;10.50;;
15449;SDS011;7826;49.784;9.934;2023-12-14T08:35:58;20.63;;;10.73;;
15449;SDS011;7826;49.784;9.934;2023-12-14T08:38:24;19.43;;;10.70;;
15449;SDS011;7826;49.784;9.934;2023-12-14T08:40:51;20.83;;;11.20;;
15449;SDS011;7826;49.784;9.934;2023-12-14T08:43:17;18.30;;;10.80;;
15449;SDS011;7826;49.784;9.934;2023-12-14T08:45:44;18.10;;;11.03;;
15449;SDS011;7826;49.784;9.934;2023-12-14T08:48:11;17.53;;;10.90;;
15449;SDS011;7826;49.784;9.934;2023-12-14T08:50:38;20.03;;;11.60;;
15449;SDS011;7826;49.784;9.934;2023-12-14T08:53:04;20.13;;;10.80;;
15449;SDS011;7826;49.784;9.934;2023-12-14T08:55:31;17.97;;;11.17;;
15449;SDS011;7826;49.784;9.934;2023-12-14T08:57:58;18.87;;;10.57;;
15449;SDS011;7826;49.784;9.934;2023-12-14T09:00:24;18.13;;;10.43;;
15449;SDS011;7826;49.784;9.934;2023-12-14T09:02:51;20.00;;;11.53;;
15449;SDS011;7826;49.784;9.934;2023-12-14T09:05:17;17.23;;;11.03;;
15449;SDS011;7826;49.784;9.934;2023-12-14T09:07:46;20.60;;;11.40;;
15449;SDS011;7826;49.784;9.934;2023-12-14T09:10:13;18.07;;;10.93;;
15449;SDS011;7826;49.784;9.934;2023-12-14T09:12:39;17.17;;;10.53;;
15449;SDS011;7826;49.784;9.934;2023-12-14T09:15:06;22.10;;;12.00;;
15449;SDS011;7826;49.784;9.934;2023-12-14T09:17:32;18.37;;;11.67;;
15449;SDS011;7826;49.784;9.934;2023-12-14T09:19:59;18.77;;;11.70;;
15449;SDS011;7826;49.784;9.934;2023-12-14T09:22:26;20.20;;;12.07;;
15449;SDS011;7826;49.784;9.934;2023-12-14T09:24:52;18.43;;;12.27;;
15449;SDS011;7826;49.784;9.934;2023-12-14T09:27:19;20.30;;;12.23;;
15449;SDS011;7826;49.784;9.934;2023-12-14T09:29:45;21.07;;;11.97;;
15449;SDS011;7826;49.784;9.934;2023-12-14T09:32:12;20.67;;;11.63;;
15449;SDS011;7826;49.784;9.934;2023-12-14T09:34:38;18.57;;;12.07;;
15449;SDS011;7826;49.784;9.934;2023-12-14T09:37:05;19.03;;;11.97;;
15449;SDS011;7826;49.784;9.934;2023-12-14T09:39:31;17.77;;;11.37;;
15449;SDS011;7826;49.784;9.934;2023-12-14T09:42:05;16.80;;;11.33;;
15449;SDS011;7826;49.784;9.934;2023-12-14T09:44:32;19.27;;;11.53;;
15449;SDS011;7826;49.784;9.934;2023-12-14T09:46:59;20.17;;;11.53;;
15449;SDS011;7826;49.784;9.934;2023-12-14T09:49:26;21.97;;;12.50;;
15449;SDS011;7826;49.784;9.934;2023-12-14T09:51:56;19.47;;;11.17;;
15449;SDS011;7826;49.784;9.934;2023-12-14T09:54:23;17.73;;;11.30;;
15449;SDS011;7826;49.784;9.934;2023-12-14T09:56:50;19.20;;;12.07;;
15449;SDS011;7826;49.784;9.934;2023-12-14T09:59:19;24.63;;;13.37;;
15449;SDS011;7826;49.784;9.934;2023-12-14T10:01:46;22.20;;;13.27;;
15449;SDS011;7826;49.784;9.934;2023-12-14T10:04:16;25.37;;;13.77;;
15449;SDS011;7826;49.784;9.934;2023-12-14T10:06:45;26.20;;;14.00;;
15449;SDS011;7826;49.784;9.934;2023-12-14T10:09:13;22.73;;;13.80;;
15449;SDS011;7826;49.784;9.934;2023-12-14T10:11:41;25.23;;;14.20;;
15449;SDS011;7826;49.784;9.934;2023-12-14T10:14:21;27.27;;;14.93;;
15449;SDS011;7826;49.784;9.934;2023-12-14T10:16:50;23.97;;;13.57;;
15449;SDS011;7826;49.784;9.934;2023-12-14T10:19:18;24.80;;;13.60;;
15449;SDS011;7826;49.784;9.934;2023-12-14T10:21:48;31.00;;;16.33;;
15449;SDS011;7826;49.784;9.934;2023-12-14T10:24:15;25.47;;;14.93;;
15449;SDS011;7826;49.784;9.934;2023-12-14T10:26:44;31.20;;;14.67;;
15449;SDS011;7826;49.784;9.934;2023-12-14T10:29:11;26.83;;;14.40;;
15449;SDS011;7826;49.784;9.934;2023-12-14T10:31:37;26.47;;;15.07;;
15449;SDS011;7826;49.784;9.934;2023-12-14T10:34:04;26.13;;;15.13;;
15449;SDS011;7826;49.784;9.934;2023-12-14T10:36:31;31.20;;;16.30;;
15449;SDS011;7826;49.784;9.934;2023-12-14T10:38:59;32.73;;;16.30;;
15449;SDS011;7826;49.784;9.934;2023-12-14T10:41:26;25.00;;;14.93;;
15449;SDS011;7826;49.784;9.934;2023-12-14T10:43:55;28.03;;;14.87;;
15449;SDS011;7826;49.784;9.934;2023-12-14T10:46:26;28.97;;;16.33;;
15449;SDS011;7826;49.784;9.934;2023-12-14T10:48:53;32.53;;;15.50;;
15449;SDS011;7826;49.784;9.934;2023-12-14T10:51:21;30.87;;;15.67;;
15449;SDS011;7826;49.784;9.934;2023-12-14T10:53:49;29.10;;;15.10;;
15449;SDS011;7826;49.784;9.934;2023-12-14T10:56:17;26.37;;;14.27;;
15449;SDS011;7826;49.784;9.934;2023-12-14T10:58:48;24.70;;;13.97;;
15449;SDS011;7826;49.784;9.934;2023-12-14T11:01:19;24.57;;;13.93;;
15449;SDS011;7826;49.784;9.934;2023-12-14T11:03:47;26.77;;;13.43;;
15449;SDS011;7826;49.784;9.934;2023-12-14T11:06:26;27.87;;;13.23;;
15449;SDS011;7826;49.784;9.934;2023-12-14T11:09:02;25.33;;;13.70;;
15449;SDS011;7826;49.784;9.934;2023-12-14T11:12:19;24.53;;;13.00;;
15449;SDS011;7826;49.784;9.934;2023-12-14T11:14:26;22.03;;;12.53;;
15449;SDS011;7826;49.784;9.934;2023-12-14T11:16:54;21.27;;;11.93;;
15449;SDS011;7826;49.784;9.934;2023-12-14T11:21:56;24.63;;;13.07;;
15449;SDS011;7826;49.784;9.934;2023-12-14T11:24:32;22.53;;;11.73;;
15449;SDS011;7826;49.784;9.934;2023-12-14T11:27:04;22.40;;;12.03;;
15449;SDS011;7826;49.784;9.934;2023-12-14T11:29:31;21.60;;;13.43;;
15449;SDS011;7826;49.784;9.934;2023-12-14T11:31:58;19.30;;;11.70;;
15449;SDS011;7826;49.784;9.934;2023-12-14T11:34:25;21.13;;;12.40;;
15449;SDS011;7826;49.784;9.934;2023-12-14T11:36:51;22.40;;;11.90;;
15449;SDS011;7826;49.784;9.934;2023-12-14T11:39:17;21.87;;;11.73;;
15449;SDS011;7826;49.784;9.934;2023-12-14T11:42:02;23.67;;;12.10;;
15449;SDS011;7826;49.784;9.934;2023-12-14T11:44:29;20.23;;;11.47;;
15449;SDS011;7826;49.784;9.934;2023-12-14T11:46:56;21.13;;;12.67;;
15449;SDS011;7826;49.784;9.934;2023-12-14T11:49:24;24.13;;;13.67;;
15449;SDS011;7826;49.784;9.934;2023-12-14T11:51:52;21.80;;;11.97;;
15449;SDS011;7826;49.784;9.934;2023-12-14T11:54:20;25.13;;;12.37;;
15449;SDS011;7826;49.784;9.934;2023-12-14T11:56:47;23.37;;;12.63;;
15449;SDS011;7826;49.784;9.934;2023-12-14T11:59:18;27.20;;;14.37;;
15449;SDS011;7826;49.784;9.934;2023-12-14T12:01:58;27.97;;;13.47;;
15449;SDS011;7826;49.784;9.934;2023-12-14T12:04:25;25.17;;;13.47;;
15449;SDS011;7826;49.784;9.934;2023-12-14T12:07:05;28.70;;;15.30;;
15449;SDS011;7826;49.784;9.934;2023-12-14T12:09:35;30.17;;;15.17;;
15449;SDS011;7826;49.784;9.934;2023-12-14T12:12:08;27.53;;;14.67;;
15449;SDS011;7826;49.784;9.934;2023-12-14T12:14:35;27.60;;;15.30;;
15449;SDS011;7826;49.784;9.934;2023-12-14T12:17:03;26.87;;;14.30;;
15449;SDS011;7826;49.784;9.934;2023-12-14T12:19:34;35.03;;;15.60;;
15449;SDS011;7826;49.784;9.934;2023-12-14T12:22:02;37.83;;;17.13;;
15449;SDS011;7826;49.784;9.934;2023-12-14T12:24:29;30.20;;;15.60;;
15449;SDS011;7826;49.784;9.934;2023-12-14T12:26:55;33.53;;;15.77;;
15449;SDS011;7826;49.784;9.934;2023-12-14T12:29:22;31.70;;;16.00;;
15449;SDS011;7826;49.784;9.934;2023-12-14T12:31:49;29.80;;;16.27;;
15449;SDS011;7826;49.784;9.934;2023-12-14T12:34:15;36.60;;;18.43;;
15449;SDS011;7826;49.784;9.934;2023-12-14T12:36:41;37.30;;;17.87;;
15449;SDS011;7826;49.784;9.934;2023-12-14T12:39:08;31.40;;;17.20;;
15449;SDS011;7826;49.784;9.934;2023-12-14T12:41:34;30.03;;;16.30;;
15449;SDS011;7826;49.784;9.934;2023-12-14T12:44:04;36.53;;;18.27;;
15449;SDS011;7826;49.784;9.934;2023-12-14T12:46:34;32.80;;;17.43;;
15449;SDS011;7826;49.784;9.934;2023-12-14T12:49:02;39.90;;;22.77;;
15449;SDS011;7826;49.784;9.934;2023-12-14T12:51:30;33.87;;;19.20;;
15449;SDS011;7826;49.784;9.934;2023-12-14T12:53:57;38.33;;;18.10;;
15449;SDS011;7826;49.784;9.934;2023-12-14T12:56:25;30.07;;;16.63;;
15449;SDS011;7826;49.784;9.934;2023-12-14T12:58:52;32.00;;;18.80;;
15449;SDS011;7826;49.784;9.934;2023-12-14T13:01:20;33.37;;;18.17;;
15449;SDS011;7826;49.784;9.934;2023-12-14T13:03:53;34.07;;;19.77;;
15449;SDS011;7826;49.784;9.934;2023-12-14T13:06:21;37.70;;;19.63;;
15449;SDS011;7826;49.784;9.934;2023-12-14T13:08:47;33.20;;;19.40;;
15449;SDS011;7826;49.784;9.934;2023-12-14T13:11:14;31.23;;;18.23;;
15449;SDS011;7826;49.784;9.934;2023-12-14T13:13:41;37.80;;;18.77;;
15449;SDS011;7826;49.784;9.934;2023-12-14T13:16:12;32.10;;;17.83;;
15449;SDS011;7826;49.784;9.934;2023-12-14T13:18:40;31.97;;;19.00;;
15449;SDS011;7826;49.784;9.934;2023-12-14T13:21:06;30.60;;;17.53;;
15449;SDS011;7826;49.784;9.934;2023-12-14T13:23:33;32.70;;;17.03;;
15449;SDS011;7826;49.784;9.934;2023-12-14T13:25:59;28.70;;;16.70;;
15449;SDS011;7826;49.784;9.934;2023-12-14T13:28:25;31.00;;;16.97;;
15449;SDS011;7826;49.784;9.934;2023-12-14T13:30:52;29.20;;;16.40;;
15449;SDS011;7826;49.784;9.934;2023-12-14T13:33:20;26.37;;;15.27;;
15449;SDS011;7826;49.784;9.934;2023-12-14T13:35:46;29.50;;;16.23;;
15449;SDS011;7826;49.784;9.934;2023-12-14T13:38:12;28.20;;;15.60;;
15449;SDS011;7826;49.784;9.934;2023-12-14T13:40:39;28.90;;;14.93;;
15449;SDS011;7826;49.784;9.934;2023-12-14T13:43:05;28.23;;;14.90;;
15449;SDS011;7826;49.784;9.934;2023-12-14T13:45:37;27.77;;;14.90;;
15449;SDS011;7826;49.784;9.934;2023-12-14T13:48:04;27.83;;;14.60;;
15449;SDS011;7826;49.784;9.934;2023-12-14T13:50:30;27.27;;;15.53;;
15449;SDS011;7826;49.784;9.934;2023-12-14T13:52:57;24.13;;;14.40;;
15449;SDS011;7826;49.784;9.934;2023-12-14T13:55:23;25.63;;;14.83;;
15449;SDS011;7826;49.784;9.934;2023-12-14T13:57:50;31.23;;;15.77;;
15449;SDS011;7826;49.784;9.934;2023-12-14T14:00:16;28.17;;;16.27;;
15449;SDS011;7826;49.784;9.934;2023-12-14T14:02:44;27.80;;;16.30;;
15449;SDS011;7826;49.784;9.934;2023-12-14T14:05:11;26.90;;;15.60;;
15449;SDS011;7826;49.784;9.934;2023-12-14T14:07:37;27.80;;;15.30;;
15449;SDS011;7826;49.784;9.934;2023-12-14T14:10:04;27.83;;;15.50;;
15449;SDS011;7826;49.784;9.934;2023-12-14T14:12:31;24.50;;;14.90;;
15449;SDS011;7826;49.784;9.934;2023-12-14T14:14:57;26.17;;;14.57;;
15449;SDS011;7826;49.784;9.934;2023-12-14T14:17:24;30.17;;;16.43;;
15449;SDS011;7826;49.784;9.934;2023-12-14T14:19:50;25.17;;;14.70;;
15449;SDS011;7826;49.784;9.934;2023-12-14T14:22:17;25.03;;;14.77;;
15449;SDS011;7826;49.784;9.934;2023-12-14T14:24:43;23.47;;;14.87;;
15449;SDS011;7826;49.784;9.934;2023-12-14T14:27:09;24.10;;;14.27;;
15449;SDS011;7826;49.784;9.934;2023-12-14T14:29:36;23.43;;;13.53;;
15449;SDS011;7826;49.784;9.934;2023-12-14T14:32:02;24.20;;;14.23;;
15449;SDS011;7826;49.784;9.934;2023-12-14T14:34:29;22.80;;;13.70;;
15449;SDS011;7826;49.784;9.934;2023-12-14T14:36:56;26.23;;;15.33;;
15449;SDS011;7826;49.784;9.934;2023-12-14T14:39:22;21.57;;;12.93;;
15449;SDS011;7826;49.784;9.934;2023-12-14T14:41:48;23.07;;;14.37;;